Time;durP1;ratioP1;P1;durP2;ratioP2;P2;SDS_P1;SDS_P2;PMS_P1;PMS_P2;Temp;Humidity;BMP_temperature;BMP_pressure;BME280_temperature;BME280_humidity;BME280_pressure;Samples;Min_cycle;Max_cycle;Signal;HPM_P1;HPM_P2
2023/11/22 00:01:37;;;;;;;26.70;16.38;;;;;;;6.15;100.00;99980.91;5071535;28;20040;-41
2023/11/22 00:04:05;;;;;;;26.40;16.38;;;;;;;6.17;100.00;99979.03;5071518;28;20519;-42
2023/11/22 00:06:35;;;;;;;27.15;17.00;;;;;;;6.09;100.00;99978.56;5071402;28;20512;-42
2023/11/22 00:09:05;;;;;;;28.33;17.23;;;;;;;5.97;100.00;99979.09;5071298;28;20106;-46
2023/11/22 00:11:38;;;;;;;26.98;16.52;;;;;;;6.05;100.00;99987.53;5071220;28;20063;-42
2023/11/22 00:14:06;;;;;;;26.50;16.20;;;;;;;5.94;100.00;99989.81;5071433;28;20051;-42
2023/11/22 00:16:37;;;;;;;27.23;15.68;;;;;;;6.07;100.00;99990.97;5071269;28;20105;-42
2023/11/22 00:19:06;;;;;;;28.17;16.40;;;;;;;5.80;100.00;100005.44;5071212;28;20045;-42
2023/11/22 00:21:36;;;;;;;26.95;15.90;;;;;;;5.99;100.00;100006.38;5071163;28;20044;-42
2023/11/22 00:24:05;;;;;;;27.33;16.05;;;;;;;5.75;100.00;100022.38;5071292;28;20114;-42
2023/11/22 00:26:33;;;;;;;24.75;15.88;;;;;;;5.55;100.00;100017.09;5071227;28;20087;-41
2023/11/22 00:29:02;;;;;;;26.05;15.75;;;;;;;5.59;100.00;100018.66;5071083;28;20500;-42
2023/11/22 00:31:30;;;;;;;27.35;15.40;;;;;;;5.73;100.00;100023.38;5071147;28;20044;-42
2023/11/22 00:33:59;;;;;;;28.52;16.88;;;;;;;5.63;100.00;100017.63;5070960;28;20071;-43
2023/11/22 00:36:27;;;;;;;26.25;15.20;;;;;;;5.47;100.00;100016.56;5071379;28;20059;-41
2023/11/22 00:38:57;;;;;;;26.52;15.02;;;;;;;5.51;100.00;100010.22;5071227;28;20045;-42
2023/11/22 00:41:31;;;;;;;25.40;14.82;;;;;;;5.32;100.00;100010.16;5071380;28;20102;-41
2023/11/22 00:43:59;;;;;;;26.52;15.27;;;;;;;5.25;100.00;100013.97;5071133;28;20143;-42
2023/11/22 00:46:27;;;;;;;28.75;16.20;;;;;;;5.51;100.00;99999.66;5070970;28;20045;-42
2023/11/22 00:48:56;;;;;;;25.83;15.25;;;;;;;5.42;100.00;100000.91;5071219;28;20123;-42
2023/11/22 00:51:25;;;;;;;29.67;15.15;;;;;;;5.40;100.00;100013.34;5071129;28;20055;-42
2023/11/22 00:53:54;;;;;;;26.02;15.18;;;;;;;5.28;100.00;100010.34;5070906;28;20627;-41
2023/11/22 00:56:24;;;;;;;25.90;15.20;;;;;;;5.42;100.00;100014.13;5071035;28;20045;-42
2023/11/22 00:58:53;;;;;;;24.77;14.63;;;;;;;5.22;100.00;100015.91;5070975;28;20041;-41
2023/11/22 01:01:21;;;;;;;26.80;14.93;;;;;;;5.12;100.00;100010.13;5071349;28;20615;-40
2023/11/22 01:03:50;;;;;;;26.73;14.85;;;;;;;5.22;100.00;100010.63;5071189;28;20071;-41
2023/11/22 01:06:18;;;;;;;28.40;15.60;;;;;;;5.09;100.00;100011.09;5072003;28;20067;-42
2023/11/22 01:08:47;;;;;;;28.83;15.88;;;;;;;5.32;100.00;100006.66;5074741;28;20098;-43
2023/11/22 01:11:16;;;;;;;26.42;15.60;;;;;;;5.42;100.00;100011.47;5074691;28;20080;-41
2023/11/22 01:13:46;;;;;;;25.85;15.88;;;;;;;5.31;100.00;100021.66;5074387;28;20053;-41
2023/11/22 01:16:15;;;;;;;26.38;15.00;;;;;;;5.27;100.00;100024.50;5074476;28;20055;-42
2023/11/22 01:18:46;;;;;;;28.25;15.35;;;;;;;5.48;100.00;100026.22;5074603;28;20056;-42
2023/11/22 01:21:14;;;;;;;27.17;15.20;;;;;;;5.18;100.00;100026.59;5074485;28;20055;-41
2023/11/22 01:23:45;;;;;;;25.75;15.23;;;;;;;5.40;100.00;100025.69;5074230;28;20055;-42
2023/11/22 01:26:13;;;;;;;26.50;15.63;;;;;;;5.49;100.00;100022.63;5074880;28;20189;-41
2023/11/22 01:28:44;;;;;;;27.02;15.65;;;;;;;5.52;100.00;100024.31;5074553;28;20042;-42
2023/11/22 01:31:14;;;;;;;25.48;15.23;;;;;;;5.26;100.00;100028.06;5074428;28;20101;-41
2023/11/22 01:33:42;;;;;;;26.23;14.85;;;;;;;5.36;100.00;100034.69;5074256;28;20486;-42
2023/11/22 01:36:11;;;;;;;27.00;15.30;;;;;;;5.33;100.00;100034.81;5074016;28;20048;-42
2023/11/22 01:38:40;;;;;;;26.92;15.93;;;;;;;5.20;100.00;100033.59;5074140;28;20464;-42
2023/11/22 01:41:08;;;;;;;25.45;15.25;;;;;;;5.07;100.00;100038.53;5074043;28;20044;-42
2023/11/22 01:43:39;;;;;;;27.15;15.45;;;;;;;5.24;100.00;100040.50;5073883;28;20104;-41
2023/11/22 01:46:08;;;;;;;26.52;15.20;;;;;;;5.03;100.00;100048.38;5074060;28;20152;-41
2023/11/22 01:48:37;;;;;;;25.38;15.13;;;;;;;5.31;100.00;100044.63;5073904;28;20132;-41
2023/11/22 01:51:08;;;;;;;24.27;14.60;;;;;;;5.32;100.00;100044.53;5073833;28;20042;-42
2023/11/22 01:53:37;;;;;;;24.73;14.63;;;;;;;5.29;100.00;100044.66;5073587;28;20409;-41
2023/11/22 01:56:05;;;;;;;25.23;13.63;;;;;;;5.45;100.00;100044.88;5073813;28;20059;-42
2023/11/22 01:58:34;;;;;;;22.23;13.82;;;;;;;5.50;100.00;100049.94;5073829;28;20044;-42
2023/11/22 02:01:03;;;;;;;22.30;13.02;;;;;;;5.29;100.00;100054.38;5073743;28;20432;-42
2023/11/22 02:03:31;;;;;;;24.83;14.25;;;;;;;4.95;100.00;100061.06;5073645;28;20468;-42
2023/11/22 02:06:01;;;;;;;23.02;13.63;;;;;;;4.80;100.00;100062.50;5073421;28;20413;-41
2023/11/22 02:08:29;;;;;;;24.23;14.32;;;;;;;4.69;100.00;100058.56;5073687;28;20405;-42
2023/11/22 02:10:58;;;;;;;24.48;15.05;;;;;;;4.54;100.00;100066.19;5073595;28;20040;-41
2023/11/22 02:13:29;;;;;;;22.98;13.68;;;;;;;4.52;100.00;100067.13;5073438;28;20049;-42
2023/11/22 02:15:59;;;;;;;23.90;12.90;;;;;;;4.25;100.00;100069.06;5073601;28;20045;-41
2023/11/22 02:18:28;;;;;;;25.00;14.48;;;;;;;4.14;100.00;100076.50;5073427;28;20110;-40
2023/11/22 02:20:57;;;;;;;24.15;14.07;;;;;;;4.22;100.00;100070.00;5073249;28;20125;-42
2023/11/22 02:23:28;;;;;;;28.67;14.57;;;;;;;4.02;100.00;100076.03;5073379;28;20041;-41
2023/11/22 02:25:56;;;;;;;27.75;15.10;;;;;;;4.43;100.00;100071.00;5073189;28;20054;-44
2023/11/22 02:28:25;;;;;;;23.95;14.98;;;;;;;4.45;100.00;100076.25;5073392;28;20049;-42
2023/11/22 02:30:54;;;;;;;34.67;15.57;;;;;;;3.93;100.00;100084.28;5073164;28;20429;-41
2023/11/22 02:33:22;;;;;;;27.75;15.02;;;;;;;3.83;100.00;100085.50;5073058;28;20055;-41
2023/11/22 02:35:50;;;;;;;27.13;14.50;;;;;;;4.16;100.00;100086.09;5073201;28;20044;-42
2023/11/22 02:38:19;;;;;;;26.85;14.45;;;;;;;3.97;100.00;100093.81;5073118;28;20098;-42
2023/11/22 02:40:49;;;;;;;28.08;13.40;;;;;;;3.96;100.00;100078.91;5073119;28;20041;-44
2023/11/22 02:43:18;;;;;;;25.00;13.45;;;;;;;4.24;100.00;100076.09;5073043;28;20132;-41
2023/11/22 02:45:47;;;;;;;23.05;12.55;;;;;;;4.09;100.00;100074.03;5072767;28;20554;-41
2023/11/22 02:48:16;;;;;;;24.65;13.07;;;;;;;4.21;100.00;100078.00;5072924;28;20124;-42
2023/11/22 02:50:44;;;;;;;20.73;11.65;;;;;;;3.95;100.00;100086.84;5072792;28;20045;-41
2023/11/22 02:53:13;;;;;;;20.48;11.68;;;;;;;3.70;100.00;100093.00;5072767;28;20437;-40
2023/11/22 02:55:41;;;;;;;21.05;10.88;;;;;;;3.70;100.00;100098.28;5072588;28;20051;-41
2023/11/22 02:58:12;;;;;;;24.85;12.43;;;;;;;4.11;100.00;100103.00;5072449;28;20429;-41
2023/11/22 03:00:41;;;;;;;29.85;14.65;;;;;;;4.18;100.00;100110.66;5072700;28;20566;-41
2023/11/22 03:03:10;;;;;;;27.27;14.02;;;;;;;4.01;100.00;100108.63;5072722;28;20405;-44
2023/11/22 03:05:39;;;;;;;32.13;13.65;;;;;;;3.91;100.00;100112.50;5072613;28;20045;-42
2023/11/22 03:08:09;;;;;;;33.45;14.13;;;;;;;3.71;100.00;100110.56;5072641;28;20391;-42
2023/11/22 03:10:38;;;;;;;35.88;12.85;;;;;;;3.83;100.00;100114.53;5072127;28;20044;-41
2023/11/22 03:13:06;;;;;;;27.98;12.63;;;;;;;3.45;100.00;100118.47;5072387;28;20132;-40
2023/11/22 03:15:37;;;;;;;28.95;11.52;;;;;;;3.80;100.00;100119.94;5072310;28;20048;-41
2023/11/22 03:18:06;;;;;;;23.45;11.70;;;;;;;3.77;100.00;100119.19;5072152;28;20517;-43
2023/11/22 03:20:34;;;;;;;24.90;11.80;;;;;;;3.76;100.00;100128.84;5072106;28;20106;-42
2023/11/22 03:23:02;;;;;;;22.45;12.05;;;;;;;4.07;100.00;100120.75;5072075;28;20071;-43
2023/11/22 03:25:31;;;;;;;24.00;11.70;;;;;;;4.24;100.00;100120.97;5071668;28;20515;-42
2023/11/22 03:27:59;;;;;;;32.15;12.10;;;;;;;4.28;100.00;100127.03;5071950;28;20074;-42
2023/11/22 03:30:27;;;;;;;26.55;12.40;;;;;;;4.14;100.00;100129.28;5071415;28;20161;-42
2023/11/22 03:32:57;;;;;;;22.58;10.75;;;;;;;3.99;100.00;100126.28;5071981;28;20091;-41
2023/11/22 03:35:25;;;;;;;24.05;11.68;;;;;;;4.14;100.00;100134.56;5071647;28;20140;-43
2023/11/22 03:37:54;;;;;;;23.25;10.65;;;;;;;3.90;100.00;100138.94;5071659;28;20136;-41
2023/11/22 03:40:22;;;;;;;26.23;11.20;;;;;;;3.72;100.00;100148.34;5072121;28;20052;-42
2023/11/22 03:42:50;;;;;;;19.95;9.70;;;;;;;3.80;100.00;100137.53;5071862;28;20041;-41
2023/11/22 03:45:19;;;;;;;20.35;10.02;;;;;;;3.61;100.00;100151.34;5071892;28;20052;-42
2023/11/22 03:47:47;;;;;;;24.67;9.82;;;;;;;3.41;100.00;100149.38;5071954;28;20087;-41
2023/11/22 03:50:17;;;;;;;22.05;10.55;;;;;;;3.32;100.00;100148.81;5071571;28;20044;-41
2023/11/22 03:52:46;;;;;;;26.10;11.15;;;;;;;3.48;100.00;100151.81;5071482;28;20520;-42
2023/11/22 03:55:15;;;;;;;27.73;13.40;;;;;;;3.47;100.00;100155.34;5071613;28;20055;-41
2023/11/22 03:57:43;;;;;;;39.25;13.00;;;;;;;3.54;100.00;100159.50;5071619;28;20122;-41
2023/11/22 04:00:13;;;;;;;36.25;13.52;;;;;;;3.65;100.00;100152.97;5071467;28;20044;-41
2023/11/22 04:02:43;;;;;;;28.83;12.57;;;;;;;3.65;100.00;100157.38;5071377;28;20049;-41
2023/11/22 04:05:12;;;;;;;30.45;12.50;;;;;;;3.77;100.00;100158.75;5071237;28;20055;-41
2023/11/22 04:07:42;;;;;;;28.27;12.60;;;;;;;3.80;100.00;100162.16;5071666;28;20050;-41
2023/11/22 04:10:10;;;;;;;31.30;12.57;;;;;;;3.72;100.00;100158.91;5071497;28;20482;-41
2023/11/22 04:12:39;;;;;;;28.23;12.45;;;;;;;4.00;100.00;100159.69;5071462;28;20127;-43
2023/11/22 04:15:09;;;;;;;28.98;13.05;;;;;;;3.86;100.00;100172.50;5071222;28;20148;-41
2023/11/22 04:17:39;;;;;;;29.00;12.40;;;;;;;3.73;100.00;100174.66;5071346;28;20143;-41
2023/11/22 04:20:14;;;;;;;24.90;11.50;;;;;;;3.88;100.00;100170.66;5071362;28;20098;-41
2023/11/22 04:22:46;;;;;;;28.77;12.27;;;;;;;3.54;100.00;100177.97;5071550;28;20119;-41
2023/11/22 04:25:15;;;;;;;27.02;12.63;;;;;;;3.71;100.00;100178.28;5071213;28;20105;-42
2023/11/22 04:27:43;;;;;;;26.77;12.23;;;;;;;3.81;100.00;100177.06;5071270;28;20045;-41
2023/11/22 04:30:14;;;;;;;25.73;12.07;;;;;;;3.91;100.00;100173.19;5071247;28;20094;-42
2023/11/22 04:32:43;;;;;;;24.75;11.48;;;;;;;3.98;100.00;100172.06;5071459;28;20136;-42
2023/11/22 04:35:11;;;;;;;24.77;12.30;;;;;;;4.26;100.00;100171.97;5071183;28;20122;-43
2023/11/22 04:37:40;;;;;;;22.83;10.75;;;;;;;4.10;100.00;100165.50;5071214;28;20539;-43
2023/11/22 04:40:11;;;;;;;21.35;10.48;;;;;;;4.10;100.00;100176.06;5072007;28;20429;-41
2023/11/22 04:42:39;;;;;;;22.17;10.70;;;;;;;4.29;100.00;100187.69;5075343;28;20072;-43
2023/11/22 04:45:09;;;;;;;19.17;10.90;;;;;;;4.12;100.00;100189.19;5075206;28;20087;-42
2023/11/22 04:47:38;;;;;;;17.73;9.77;;;;;;;3.99;100.00;100191.41;5075428;28;20213;-41
2023/11/22 04:50:07;;;;;;;18.55;9.85;;;;;;;3.85;100.00;100197.13;5075313;28;20040;-41
2023/11/22 04:52:36;;;;;;;17.45;9.50;;;;;;;3.76;100.00;100197.44;5075121;28;20460;-44
2023/11/22 04:55:05;;;;;;;16.60;9.18;;;;;;;4.02;100.00;100197.44;5074884;28;20442;-42
2023/11/22 04:57:35;;;;;;;17.10;8.55;;;;;;;3.95;100.00;100195.91;5074740;28;20070;-42
2023/11/22 05:00:07;;;;;;;16.20;8.50;;;;;;;4.02;100.00;100196.56;5075031;28;20417;-42
2023/11/22 05:02:35;;;;;;;19.55;9.45;;;;;;;3.89;100.00;100193.50;5075198;28;20057;-43
2023/11/22 05:05:04;;;;;;;16.80;9.27;;;;;;;3.76;100.00;100196.59;5075002;28;20524;-43
2023/11/22 05:07:33;;;;;;;19.65;9.75;;;;;;;3.47;100.00;100201.03;5073479;28;20044;-42
2023/11/22 05:10:02;;;;;;;25.13;9.13;;;;;;;3.44;100.00;100204.63;5074822;28;20044;-47
2023/11/22 05:12:30;;;;;;;19.02;9.77;;;;;;;3.40;100.00;100210.06;5075122;28;20489;-42
2023/11/22 05:15:00;;;;;;;19.92;10.02;;;;;;;3.34;100.00;100216.38;5075053;28;20060;-42
2023/11/22 05:17:29;;;;;;;20.92;10.57;;;;;;;3.32;100.00;100212.94;5075013;28;20460;-42
2023/11/22 05:19:57;;;;;;;24.83;10.35;;;;;;;3.60;100.00;100226.13;5074521;28;20052;-41
2023/11/22 05:22:25;;;;;;;23.52;11.35;;;;;;;3.68;100.00;100228.50;5074554;28;20465;-42
2023/11/22 05:24:54;;;;;;;18.13;9.85;;;;;;;3.78;100.00;100231.72;5074076;28;20114;-42
2023/11/22 05:27:22;;;;;;;37.08;9.77;;;;;;;3.82;100.00;100225.41;5074448;28;20055;-42
2023/11/22 05:29:50;;;;;;;19.15;9.05;;;;;;;3.69;100.00;100231.09;5074509;28;20460;-41
2023/11/22 05:32:27;;;;;;;32.60;9.43;;;;;;;3.70;100.00;100237.22;5074509;28;20075;-42
2023/11/22 05:34:55;;;;;;;31.98;8.55;;;;;;;3.39;100.00;100238.22;5074036;28;20049;-42
2023/11/22 05:37:24;;;;;;;20.52;8.80;;;;;;;3.62;100.00;100240.13;5074162;28;20417;-42
2023/11/22 05:39:55;;;;;;;35.97;9.68;;;;;;;3.51;100.00;100249.28;5074473;28;20055;-43
2023/11/22 05:42:26;;;;;;;51.00;10.13;;;;;;;3.28;100.00;100261.41;5074012;28;20045;-42
2023/11/22 05:44:54;;;;;;;23.55;10.40;;;;;;;3.45;100.00;100259.09;5074063;28;20086;-42
2023/11/22 05:47:22;;;;;;;36.00;11.40;;;;;;;3.35;100.00;100260.28;5074041;28;20044;-42
2023/11/22 05:49:52;;;;;;;37.95;11.25;;;;;;;3.33;100.00;100270.03;5074032;28;20098;-42
2023/11/22 05:52:23;;;;;;;25.30;11.32;;;;;;;3.67;100.00;100271.63;5073204;28;20547;-41
2023/11/22 05:54:51;;;;;;;31.38;11.82;;;;;;;3.65;100.00;100268.16;5073952;28;20132;-44
2023/11/22 05:57:19;;;;;;;30.55;12.13;;;;;;;3.94;100.00;100265.44;5073736;28;20139;-42
2023/11/22 05:59:48;;;;;;;38.92;11.82;;;;;;;3.95;100.00;100272.44;5072568;28;20055;-42
2023/11/22 06:02:16;;;;;;;47.55;10.82;;;;;;;3.53;100.00;100272.06;5073999;28;20058;-42
2023/11/22 06:04:44;;;;;;;43.88;11.25;;;;;;;3.62;100.00;100273.53;5073739;28;20131;-42
2023/11/22 06:07:14;;;;;;;46.38;12.23;;;;;;;3.60;100.00;100278.00;5073451;28;20518;-42
2023/11/22 06:09:42;;;;;;;24.58;10.75;;;;;;;3.88;100.00;100278.88;5073418;28;20509;-42
2023/11/22 06:12:10;;;;;;;44.17;12.57;;;;;;;3.77;100.00;100283.63;5073504;28;20044;-42
2023/11/22 06:14:39;;;;;;;42.20;11.98;;;;;;;3.98;100.00;100296.13;5073341;28;20050;-42
2023/11/22 06:17:07;;;;;;;56.75;12.27;;;;;;;3.76;100.00;100308.25;5073403;28;20053;-41
2023/11/22 06:19:35;;;;;;;29.42;11.98;;;;;;;3.58;100.00;100315.00;5073527;28;20080;-42
2023/11/22 06:22:04;;;;;;;54.33;11.93;;;;;;;3.64;100.00;100312.13;5073240;28;20457;-43
2023/11/22 06:24:35;;;;;;;65.32;12.05;;;;;;;3.50;100.00;100316.13;5073025;28;20096;-42
2023/11/22 06:27:05;;;;;;;41.28;12.95;;;;;;;3.40;100.00;100313.75;5072934;28;20045;-41
2023/11/22 06:29:33;;;;;;;48.97;12.57;;;;;;;3.29;100.00;100322.91;5072983;28;20044;-42
2023/11/22 06:32:02;;;;;;;34.08;11.25;;;;;;;3.49;100.00;100332.88;5073137;28;20134;-42
2023/11/22 06:34:30;;;;;;;32.85;12.00;;;;;;;3.65;100.00;100328.84;5073015;28;20486;-42
2023/11/22 06:36:58;;;;;;;28.83;12.13;;;;;;;3.73;100.00;100335.59;5073216;28;20052;-41
2023/11/22 06:39:27;;;;;;;24.60;11.27;;;;;;;3.89;100.00;100343.06;5073149;28;20049;-42
2023/11/22 06:41:56;;;;;;;24.30;11.82;;;;;;;4.11;100.00;100336.19;5072949;28;20041;-41
2023/11/22 06:44:25;;;;;;;23.10;10.85;;;;;;;4.08;100.00;100336.28;5073186;28;20143;-42
2023/11/22 06:46:53;;;;;;;25.85;9.45;;;;;;;4.26;100.00;100342.75;5073279;28;20086;-41
2023/11/22 06:49:21;;;;;;;20.10;9.23;;;;;;;4.22;100.00;100344.59;5073191;28;20048;-42
2023/11/22 06:51:51;;;;;;;18.55;9.02;;;;;;;4.43;100.00;100352.72;5072971;28;20049;-42
2023/11/22 06:54:21;;;;;;;14.98;8.68;;;;;;;4.52;100.00;100350.63;5072763;28;20060;-42
2023/11/22 06:56:50;;;;;;;17.38;8.60;;;;;;;4.45;100.00;100354.44;5072914;28;20048;-41
2023/11/22 06:59:20;;;;;;;14.45;8.25;;;;;;;4.56;100.00;100365.50;5073067;28;20147;-43
2023/11/22 07:01:48;;;;;;;12.50;7.97;;;;;;;4.67;100.00;100366.91;5073043;28;20120;-41
2023/11/22 07:04:16;;;;;;;14.55;7.80;;;;;;;4.67;100.00;100372.19;5071519;28;20040;-42
2023/11/22 07:06:45;;;;;;;13.05;7.53;;;;;;;4.81;100.00;100380.50;5072648;28;20041;-42
2023/11/22 07:09:13;;;;;;;11.52;7.20;;;;;;;4.80;100.00;100384.06;5072368;28;20105;-41
2023/11/22 07:11:43;;;;;;;10.00;6.50;;;;;;;4.73;100.00;100387.81;5072572;28;20430;-41
2023/11/22 07:14:12;;;;;;;13.43;6.70;;;;;;;4.96;100.00;100385.25;5072582;28;20383;-40
2023/11/22 07:16:42;;;;;;;12.38;7.35;;;;;;;5.25;100.00;100392.16;5072544;28;20084;-42
2023/11/22 07:19:12;;;;;;;13.43;6.85;;;;;;;5.03;100.00;100402.63;5072529;28;20410;-41
2023/11/22 07:21:40;;;;;;;14.77;7.40;;;;;;;5.19;100.00;100392.38;5072391;28;20471;-42
2023/11/22 07:24:13;;;;;;;12.55;6.82;;;;;;;5.41;100.00;100395.13;5072401;28;20132;-42
2023/11/22 07:26:42;;;;;;;13.57;6.93;;;;;;;5.78;100.00;100397.22;5071892;28;20047;-42
2023/11/22 07:29:11;;;;;;;13.95;6.82;;;;;;;5.71;100.00;100401.91;5076871;28;20049;-42
2023/11/22 07:31:42;;;;;;;11.75;6.00;;;;;;;5.71;100.00;100393.97;5078091;28;20047;-42
2023/11/22 07:34:12;;;;;;;10.43;5.85;;;;;;;5.89;100.00;100392.41;5077259;28;20052;-42
2023/11/22 07:36:40;;;;;;;11.35;6.95;;;;;;;5.70;100.00;100388.75;5092631;28;20059;-42
2023/11/22 07:39:11;;;;;;;12.50;6.38;;;;;;;5.93;100.00;100382.59;5092525;28;20048;-42
2023/11/22 07:41:40;;;;;;;11.43;6.30;;;;;;;5.86;100.00;100386.34;5092403;28;20048;-41
2023/11/22 07:44:09;;;;;;;15.13;7.10;;;;;;;5.88;100.00;100387.16;5092317;28;20044;-41
2023/11/22 07:46:44;;;;;;;10.63;7.07;;;;;;;5.99;100.00;100387.66;5090286;28;20409;-45
2023/11/22 07:49:14;;;;;;;12.75;7.90;;;;;;;6.08;100.00;100395.25;5072871;28;20129;-43
2023/11/22 07:51:42;;;;;;;12.65;7.85;;;;;;;6.50;100.00;100394.44;5071467;28;20083;-42
2023/11/22 07:54:15;;;;;;;11.45;7.30;;;;;;;6.74;100.00;100396.03;5071690;28;20406;-41
2023/11/22 07:56:43;;;;;;;11.98;6.72;;;;;;;6.74;100.00;100405.78;5072350;28;20143;-43
2023/11/22 07:59:12;;;;;;;12.93;7.18;;;;;;;6.49;100.00;100416.56;5071969;28;20052;-42
2023/11/22 08:01:43;;;;;;;15.75;7.80;;;;;;;6.67;100.00;100412.28;5072172;28;20090;-41
2023/11/22 08:04:14;;;;;;;12.95;7.70;;;;;;;7.01;100.00;100414.38;5071741;28;20056;-41
2023/11/22 08:06:42;;;;;;;13.73;7.72;;;;;;;6.99;100.00;100426.84;5071699;28;20131;-41
2023/11/22 08:09:10;;;;;;;13.60;7.00;;;;;;;6.54;100.00;100427.81;5071635;28;20048;-41
2023/11/22 08:11:39;;;;;;;11.85;6.70;;;;;;;6.74;100.00;100433.16;5071459;28;20055;-41
2023/11/22 08:14:08;;;;;;;11.02;7.10;;;;;;;6.70;100.00;100436.88;5071633;28;20503;-43
2023/11/22 08:16:38;;;;;;;12.90;6.85;;;;;;;6.80;100.00;100430.25;5071220;28;20083;-41
2023/11/22 08:19:08;;;;;;;11.15;6.25;;;;;;;6.75;100.00;100442.81;5071580;28;20052;-41
2023/11/22 08:21:38;;;;;;;10.75;6.47;;;;;;;6.58;100.00;100442.69;5071446;28;20127;-41
2023/11/22 08:24:07;;;;;;;13.40;6.38;;;;;;;6.92;100.00;100441.28;5071104;28;20076;-41
2023/11/22 08:26:37;;;;;;;14.63;6.30;;;;;;;7.07;100.00;100445.94;5071148;28;20053;-41
2023/11/22 08:29:07;;;;;;;12.90;6.30;;;;;;;7.25;100.00;100450.47;5071215;28;20435;-42
2023/11/22 08:31:36;;;;;;;10.90;6.47;;;;;;;7.06;100.00;100449.53;5071250;28;20075;-41
2023/11/22 08:34:06;;;;;;;10.68;6.60;;;;;;;7.12;100.00;100460.72;5071058;28;20135;-41
2023/11/22 08:36:35;;;;;;;12.30;6.72;;;;;;;7.10;100.00;100453.75;5071139;28;20182;-42
2023/11/22 08:39:04;;;;;;;10.25;6.47;;;;;;;7.11;100.00;100456.34;5070945;28;20405;-43
2023/11/22 08:41:34;;;;;;;13.55;7.03;;;;;;;7.24;100.00;100453.16;5071472;28;20131;-43
2023/11/22 08:44:02;;;;;;;11.23;6.55;;;;;;;7.32;100.00;100451.88;5071399;28;20139;-42
2023/11/22 08:46:30;;;;;;;12.63;6.93;;;;;;;7.36;100.00;100456.16;5071425;28;20047;-42
2023/11/22 08:48:59;;;;;;;12.23;6.80;;;;;;;7.23;100.00;100449.63;5071214;28;20071;-43
2023/11/22 08:51:27;;;;;;;10.85;6.82;;;;;;;7.39;100.00;100452.50;5070792;28;20193;-41
2023/11/22 08:53:55;;;;;;;12.82;7.05;;;;;;;7.33;100.00;100448.31;5070825;28;20040;-41
2023/11/22 08:56:25;;;;;;;13.88;6.60;;;;;;;7.63;100.00;100461.19;5070765;28;20044;-42
2023/11/22 08:58:54;;;;;;;10.07;6.30;;;;;;;7.74;100.00;100457.09;5070877;28;20058;-42
2023/11/22 09:01:23;;;;;;;13.45;6.65;;;;;;;7.69;100.00;100455.59;5071120;28;20490;-43
2023/11/22 09:03:51;;;;;;;11.60;6.32;;;;;;;7.56;100.00;100459.72;5071016;28;20060;-43
2023/11/22 09:06:19;;;;;;;11.90;6.50;;;;;;;7.87;100.00;100459.19;5070924;28;20156;-43
2023/11/22 09:08:49;;;;;;;12.55;7.35;;;;;;;7.88;100.00;100452.94;5070991;28;20052;-42
2023/11/22 09:11:19;;;;;;;12.90;6.90;;;;;;;7.90;100.00;100456.38;5070879;28;20071;-41
2023/11/22 09:13:50;;;;;;;15.18;6.97;;;;;;;8.06;100.00;100461.88;5050699;28;20520;-41
2023/11/22 09:16:19;;;;;;;13.85;6.82;;;;;;;7.99;100.00;100456.84;5050737;28;20045;-41
2023/11/22 09:18:48;;;;;;;11.25;7.20;;;;;;;8.16;100.00;100465.81;5050407;28;20405;-42
2023/11/22 09:21:17;;;;;;;10.00;6.95;;;;;;;7.89;100.00;100463.50;5050726;28;20049;-41
2023/11/22 09:23:45;;;;;;;11.50;7.50;;;;;;;8.08;100.00;100467.97;5050171;28;20486;-42
2023/11/22 09:26:14;;;;;;;11.70;7.20;;;;;;;8.24;100.00;100463.66;5050631;28;20041;-41
2023/11/22 09:28:43;;;;;;;10.80;7.03;;;;;;;8.26;100.00;100467.09;5053883;28;20051;-42
2023/11/22 09:31:17;;;;;;;15.85;7.60;;;;;;;8.27;100.00;100474.16;5053990;28;20114;-41
2023/11/22 09:33:46;;;;;;;15.57;7.82;;;;;;;8.41;100.00;100471.75;5054224;28;20155;-41
2023/11/22 09:36:17;;;;;;;12.20;7.30;;;;;;;8.58;100.00;100471.78;5053795;28;20490;-43
2023/11/22 09:38:47;;;;;;;14.23;8.15;;;;;;;8.42;100.00;100472.59;5054067;28;20049;-41
2023/11/22 09:41:16;;;;;;;13.60;7.68;;;;;;;8.45;100.00;100477.75;5053932;28;20064;-42
2023/11/22 09:43:49;;;;;;;11.23;6.68;;;;;;;8.62;100.00;100477.81;5053795;28;20398;-43
2023/11/22 09:46:20;;;;;;;17.58;7.50;;;;;;;8.58;100.00;100485.06;5054198;28;20131;-42
2023/11/22 09:48:50;;;;;;;11.15;6.97;;;;;;;8.78;100.00;100488.56;5053914;28;20060;-41
2023/11/22 09:51:24;;;;;;;12.77;6.50;;;;;;;8.75;100.00;100497.56;5053961;28;20045;-43
2023/11/22 09:53:56;;;;;;;9.93;6.25;;;;;;;8.69;100.00;100492.56;5053715;28;20045;-43
2023/11/22 09:56:25;;;;;;;9.48;6.55;;;;;;;8.80;100.00;100490.22;5053463;28;20056;-41
2023/11/22 09:58:56;;;;;;;13.43;6.72;;;;;;;8.70;100.00;100493.41;5053620;28;20140;-42
2023/11/22 10:01:28;;;;;;;10.50;6.40;;;;;;;8.92;100.00;100493.22;5053624;28;20055;-42
2023/11/22 10:03:56;;;;;;;11.70;6.15;;;;;;;9.09;100.00;100483.47;5053558;28;20068;-42
2023/11/22 10:06:26;;;;;;;11.70;5.78;;;;;;;9.12;100.00;100479.78;5053355;28;20052;-42
2023/11/22 10:08:54;;;;;;;9.63;5.70;;;;;;;9.04;100.00;100476.63;5053218;28;20049;-42
2023/11/22 10:11:23;;;;;;;10.23;5.80;;;;;;;9.12;100.00;100487.75;5053468;28;20477;-42
2023/11/22 10:13:52;;;;;;;12.00;6.60;;;;;;;9.36;100.00;100491.84;5053311;28;20577;-41
2023/11/22 10:16:21;;;;;;;10.95;5.38;;;;;;;9.41;100.00;100491.59;5053505;28;20052;-43
2023/11/22 10:18:50;;;;;;;8.48;5.13;;;;;;;9.40;100.00;100493.41;5053306;28;20409;-42
2023/11/22 10:21:20;;;;;;;10.15;5.20;;;;;;;9.49;100.00;100489.41;5053291;28;20056;-42
2023/11/22 10:23:51;;;;;;;9.77;5.60;;;;;;;9.55;100.00;100497.06;5053107;28;20122;-42
2023/11/22 10:26:19;;;;;;;12.57;6.00;;;;;;;9.60;100.00;100503.03;5053452;28;20080;-43
2023/11/22 10:28:51;;;;;;;7.80;4.50;;;;;;;9.45;100.00;100514.44;5053219;28;20405;-43
2023/11/22 10:31:21;;;;;;;7.78;4.60;;;;;;;9.65;100.00;100511.66;5053150;28;20052;-42
2023/11/22 10:33:52;;;;;;;10.00;5.18;;;;;;;9.78;100.00;100503.84;5052910;28;20086;-43
2023/11/22 10:36:23;;;;;;;12.35;5.53;;;;;;;9.90;100.00;100515.66;5052755;28;20052;-42
2023/11/22 10:38:51;;;;;;;10.15;5.50;;;;;;;9.89;100.00;100524.59;5052624;28;20051;-42
2023/11/22 10:41:22;;;;;;;8.73;5.05;;;;;;;10.01;100.00;100523.94;5052676;28;20131;-43
2023/11/22 10:43:55;;;;;;;9.27;5.07;;;;;;;10.07;100.00;100536.94;5052763;28;20744;-42
2023/11/22 10:46:29;;;;;;;7.70;4.65;;;;;;;10.01;100.00;100542.59;5052550;28;20203;-41
2023/11/22 10:48:59;;;;;;;;;;;;;;;10.12;100.00;100547.34;5053316;28;20537;-41
2023/11/22 10:51:32;;;;;;;10.05;4.38;;;;;;;10.08;100.00;100544.00;5052814;28;20443;-42
2023/11/22 10:54:03;;;;;;;7.90;4.55;;;;;;;10.04;100.00;100539.78;5052574;28;20044;-41
2023/11/22 10:56:38;;;;;;;7.35;4.43;;;;;;;10.13;100.00;100539.25;5052717;28;20091;-42
2023/11/22 10:59:12;;;;;;;7.35;4.20;;;;;;;9.99;100.00;100542.69;5052259;28;20091;-42
2023/11/22 11:01:46;;;;;;;8.43;4.22;;;;;;;10.20;100.00;100543.34;5052545;28;20076;-42
2023/11/22 11:04:21;;;;;;;8.60;4.85;;;;;;;10.41;100.00;100553.81;5052181;28;20087;-41
2023/11/22 11:06:55;;;;;;;7.25;4.70;;;;;;;10.53;100.00;100550.50;5052357;28;20048;-42
2023/11/22 11:09:29;;;;;;;12.25;6.30;;;;;;;10.59;100.00;100560.81;5052114;28;20044;-43
2023/11/22 11:11:59;;;;;;;13.40;6.30;;;;;;;10.69;100.00;100564.69;5052265;28;20465;-42
2023/11/22 11:14:28;;;;;;;12.10;6.57;;;;;;;10.62;100.00;100571.31;5052267;28;20127;-43
2023/11/22 11:16:58;;;;;;;11.75;6.90;;;;;;;10.25;100.00;100568.00;5052082;28;20045;-41
2023/11/22 11:19:30;;;;;;;10.45;6.38;;;;;;;10.35;100.00;100578.16;5051964;28;20561;-42
2023/11/22 11:22:00;;;;;;;10.87;6.37;;;;;;;10.07;100.00;100574.25;5051936;28;20080;-42
2023/11/22 11:24:29;;;;;;;12.02;6.60;;;;;;;9.90;100.00;100585.81;5051681;28;20514;-42